Time;durP1;ratioP1;P1;durP2;ratioP2;P2;SDS_P1;SDS_P2;PMS_P1;PMS_P2;Temp;Humidity;BMP_temperature;BMP_pressure;BME280_temperature;BME280_humidity;BME280_pressure;Samples;Min_cycle;Max_cycle;Signal;HPM_P1;HPM_P2
2022/06/17 00:01:04;;;;;;;5.45;2.75;;;20.00;97.20;;;;;;5042896;28;20036;-31
2022/06/17 00:03:31;;;;;;;4.75;2.85;;;20.10;97.30;;;;;;5041907;28;20095;-31
2022/06/17 00:05:59;;;;;;;8.20;2.70;;;20.00;97.40;;;;;;5051136;28;20037;-41
2022/06/17 00:08:33;;;;;;;4.35;3.20;;;20.00;97.40;;;;;;5044710;28;20084;-32
2022/06/17 00:10:59;;;;;;;3.17;2.88;;;20.00;97.50;;;;;;5043247;28;20040;-31
2022/06/17 00:13:25;;;;;;;2.83;2.60;;;20.00;97.50;;;;;;5036622;28;20396;-31
2022/06/17 00:15:51;;;;;;;2.70;2.50;;;20.00;97.60;;;;;;5038679;28;20029;-32
2022/06/17 00:18:18;;;;;;;4.50;2.73;;;20.00;97.60;;;;;;5053154;28;20496;-31
2022/06/17 00:20:46;;;;;;;4.60;2.85;;;20.00;97.60;;;;;;5042756;28;20025;-30
2022/06/17 00:23:17;;;;;;;3.45;3.15;;;20.00;97.70;;;;;;5038118;28;20091;-34
2022/06/17 00:25:45;;;;;;;10.48;3.30;;;20.10;97.70;;;;;;5047919;28;20029;-29
2022/06/17 00:28:17;;;;;;;4.50;2.53;;;20.10;97.70;;;;;;5041524;28;20068;-33
2022/06/17 00:30:43;;;;;;;3.38;2.78;;;20.00;97.80;;;;;;5052343;28;20040;-34
2022/06/17 00:33:09;;;;;;;8.40;3.58;;;20.00;97.90;;;;;;5050724;28;20025;-31
2022/06/17 00:35:41;;;;;;;3.83;2.80;;;20.00;97.90;;;;;;5050467;28;20067;-29
2022/06/17 00:38:12;;;;;;;3.95;2.83;;;20.00;97.90;;;;;;5044961;28;20064;-29
2022/06/17 00:40:38;;;;;;;4.15;2.80;;;19.90;98.00;;;;;;5037125;28;20573;-33
2022/06/17 00:43:11;;;;;;;3.03;2.50;;;19.90;98.10;;;;;;5047842;28;20064;-33
2022/06/17 00:45:44;;;;;;;2.65;2.30;;;19.90;98.10;;;;;;5044759;28;20029;-31
2022/06/17 00:48:21;;;;;;;3.25;2.60;;;19.80;98.20;;;;;;5040783;28;20087;-32
2022/06/17 00:50:55;;;;;;;4.25;2.88;;;19.80;98.30;;;;;;5049451;28;20017;-35
2022/06/17 00:53:25;;;;;;;3.10;2.38;;;19.90;98.20;;;;;;5034540;28;20030;-35
2022/06/17 00:56:24;;;;;;;2.65;2.45;;;19.90;98.20;;;;;;5042440;28;20029;-36
2022/06/17 00:58:54;;;;;;;4.13;2.70;;;19.80;98.30;;;;;;5042517;28;20068;-35
2022/06/17 01:01:22;;;;;;;6.07;3.20;;;19.90;98.30;;;;;;5035002;28;20477;-42
2022/06/17 01:03:49;;;;;;;;;;;19.90;98.20;;;;;;5036297;28;20090;-37
2022/06/17 01:06:18;;;;;;;7.60;3.63;;;19.90;98.30;;;;;;5035373;28;20011;-38
2022/06/17 01:11:39;;;;;;;5.22;3.63;;;19.70;98.50;;;;;;5034444;28;20040;-39
2022/06/17 01:14:07;;;;;;;4.72;3.25;;;19.70;98.70;;;;;;5035456;28;20466;-38
2022/06/17 01:16:36;;;;;;;4.57;3.25;;;19.60;98.80;;;;;;5035023;28;20021;-38
2022/06/17 01:19:12;;;;;;;3.60;3.30;;;19.60;98.90;;;;;;5036805;28;20469;-38
2022/06/17 01:21:51;;;;;;;4.75;3.60;;;19.60;99.00;;;;;;5039818;28;20032;-38
2022/06/17 01:24:18;;;;;;;9.05;4.03;;;19.50;99.20;;;;;;5042996;28;20095;-33
2022/06/17 01:26:43;;;;;;;5.95;3.63;;;19.50;99.30;;;;;;5053174;28;20068;-36
2022/06/17 01:29:13;;;;;;;5.82;4.00;;;19.50;99.30;;;;;;5039672;28;20545;-37
2022/06/17 01:31:43;;;;;;;11.15;5.10;;;19.50;99.30;;;;;;5048558;28;20029;-38
2022/06/17 01:34:11;;;;;;;4.55;4.15;;;19.60;99.40;;;;;;5034918;28;20470;-38
2022/06/17 01:36:37;;;;;;;6.72;4.82;;;19.60;99.50;;;;;;5033437;28;20512;-48
2022/06/17 01:39:03;;;;;;;7.10;4.50;;;19.50;99.60;;;;;;5034861;28;20025;-28
2022/06/17 01:41:31;;;;;;;8.95;4.78;;;19.50;99.70;;;;;;5036534;28;20024;-31
2022/06/17 01:44:28;;;;;;;7.45;4.30;;;19.40;99.90;;;;;;5032994;28;20449;-29
2022/06/17 01:46:56;;;;;;;5.60;3.97;;;19.40;99.90;;;;;;5031819;28;20490;-30
2022/06/17 01:49:27;;;;;;;5.10;4.45;;;19.30;99.90;;;;;;5033527;28;20026;-33
2022/06/17 01:51:59;;;;;;;7.63;5.18;;;19.30;99.90;;;;;;5034352;28;20489;-38
2022/06/17 01:54:31;;;;;;;8.52;5.25;;;19.30;99.90;;;;;;5033186;28;20477;-39
2022/06/17 01:57:00;;;;;;;7.53;5.13;;;19.30;99.90;;;;;;5044639;28;20027;-39
2022/06/17 01:59:36;;;;;;;6.45;5.22;;;19.20;99.90;;;;;;5049698;28;20025;-38
2022/06/17 02:02:04;;;;;;;10.13;4.90;;;19.20;99.90;;;;;;5054692;28;20029;-37
2022/06/17 02:04:36;;;;;;;10.05;5.25;;;19.20;99.90;;;;;;5048953;28;20083;-37
2022/06/17 02:07:04;;;;;;;17.35;5.53;;;19.10;99.90;;;;;;5036854;28;20057;-36
2022/06/17 02:09:30;;;;;;;6.85;5.38;;;19.10;99.90;;;;;;5043200;28;20052;-37
2022/06/17 02:12:00;;;;;;;8.77;5.45;;;19.10;99.90;;;;;;5033536;28;20072;-30
2022/06/17 02:14:27;;;;;;;9.38;6.00;;;19.10;99.90;;;;;;5033842;28;20033;-33
2022/06/17 02:16:54;;;;;;;6.70;5.13;;;19.00;99.90;;;;;;5034088;28;20021;-29
2022/06/17 02:19:23;;;;;;;9.90;5.57;;;19.00;99.90;;;;;;5034023;28;20033;-32
2022/06/17 02:22:04;;;;;;;8.45;5.75;;;19.00;99.90;;;;;;5033769;28;20080;-31
2022/06/17 02:24:29;;;;;;;11.77;5.57;;;18.90;99.90;;;;;;5033658;28;20030;-34
2022/06/17 02:26:59;;;;;;;9.45;5.60;;;19.00;99.90;;;;;;5032154;28;20532;-35
2022/06/17 02:29:24;;;;;;;9.30;5.65;;;18.90;99.90;;;;;;5039513;28;20124;-32
2022/06/17 02:31:51;;;;;;;9.45;5.88;;;18.90;99.90;;;;;;5037636;28;20108;-29
2022/06/17 02:34:18;;;;;;;7.95;5.57;;;18.90;99.90;;;;;;5033084;28;20512;-34
2022/06/17 02:36:56;;;;;;;9.55;6.13;;;18.80;99.90;;;;;;5032857;28;20101;-31
2022/06/17 02:39:22;;;;;;;8.55;5.60;;;18.80;99.90;;;;;;5037004;28;20489;-32
2022/06/17 02:41:50;;;;;;;11.00;5.88;;;18.80;99.90;;;;;;5033399;28;20104;-31
2022/06/17 02:44:21;;;;;;;6.93;5.03;;;18.80;99.90;;;;;;5033752;28;20083;-33
2022/06/17 02:46:47;;;;;;;9.82;5.80;;;18.80;99.90;;;;;;5038588;28;20504;-32
2022/06/17 02:49:18;;;;;;;11.70;6.10;;;18.80;99.90;;;;;;5050879;28;20032;-34
2022/06/17 02:51:44;;;;;;;6.78;5.18;;;18.70;99.90;;;;;;5035960;28;20505;-48
2022/06/17 02:54:16;;;;;;;11.02;5.88;;;18.70;99.90;;;;;;5033346;28;20486;-31
2022/06/17 02:56:47;;;;;;;11.90;6.03;;;18.70;99.90;;;;;;5033002;28;20034;-33
2022/06/17 02:59:48;;;;;;;8.88;6.13;;;18.70;99.90;;;;;;5034418;28;20500;-36
2022/06/17 03:02:27;;;;;;;10.05;5.88;;;18.80;99.90;;;;;;5039505;28;20132;-34
2022/06/17 03:04:53;;;;;;;12.52;6.13;;;18.80;99.90;;;;;;5033082;28;20074;-31
2022/06/17 03:07:21;;;;;;;10.45;5.40;;;18.80;99.90;;;;;;5042400;28;20025;-30
2022/06/17 03:10:06;;;;;;;8.93;5.68;;;18.80;99.90;;;;;;5039351;28;20478;-33
2022/06/17 03:12:33;;;;;;;8.13;6.03;;;18.80;99.90;;;;;;5045754;28;20493;-29
2022/06/17 03:15:09;;;;;;;7.15;5.40;;;18.80;99.90;;;;;;5033364;28;20021;-32
2022/06/17 03:17:39;;;;;;;6.37;5.13;;;18.90;99.90;;;;;;5050691;28;20078;-31
2022/06/17 03:20:09;;;;;;;9.85;5.50;;;18.90;99.90;;;;;;5050600;28;20021;-39
2022/06/17 03:22:35;;;;;;;10.15;5.60;;;19.00;99.90;;;;;;5032837;28;20033;-32
2022/06/17 03:25:01;;;;;;;9.13;5.75;;;19.00;99.90;;;;;;5033122;28;20101;-31
2022/06/17 03:27:54;;;;;;;8.48;5.65;;;19.00;99.90;;;;;;5042604;28;20401;-30
2022/06/17 03:30:26;;;;;;;6.70;5.07;;;19.00;99.90;;;;;;5034358;28;20131;-48
2022/06/17 03:33:27;;;;;;;12.82;6.25;;;19.10;99.90;;;;;;5032858;28;20627;-38
2022/06/17 03:35:58;;;;;;;10.60;5.40;;;19.10;99.90;;;;;;5038763;28;20532;-38
2022/06/17 03:38:47;;;;;;;9.57;5.25;;;19.10;99.90;;;;;;5038736;28;20065;-38
2022/06/17 03:41:36;;;;;;;8.82;5.75;;;19.10;99.90;;;;;;5039360;28;20033;-38
2022/06/17 03:44:14;;;;;;;8.75;5.35;;;19.10;99.90;;;;;;5038391;28;20046;-38
2022/06/17 03:46:49;;;;;;;;;;;19.10;99.90;;;;;;5040257;28;20477;-37
2022/06/17 03:49:20;;;;;;;11.70;5.78;;;19.10;99.90;;;;;;5040983;28;19967;-39
2022/06/17 03:51:49;;;;;;;6.32;5.18;;;19.10;99.90;;;;;;5039354;28;20030;-38
2022/06/17 03:54:16;;;;;;;6.95;5.10;;;19.10;99.90;;;;;;5039492;28;20535;-38
2022/06/17 03:56:47;;;;;;;7.32;4.22;;;19.10;99.90;;;;;;5038849;28;20474;-40
2022/06/17 03:59:21;;;;;;;7.43;5.55;;;19.10;99.90;;;;;;5039006;28;20485;-33
2022/06/17 04:01:52;;;;;;;8.15;6.03;;;19.10;99.90;;;;;;5038957;28;20446;-31
2022/06/17 04:04:20;;;;;;;8.55;5.70;;;19.10;99.90;;;;;;5050535;28;20064;-30
2022/06/17 04:06:50;;;;;;;13.43;5.72;;;19.10;99.90;;;;;;5038907;28;20116;-29
2022/06/17 04:09:27;;;;;;;7.55;5.25;;;19.10;99.90;;;;;;5038457;28;20033;-37
2022/06/17 04:12:13;;;;;;;13.80;6.28;;;19.10;99.90;;;;;;5038708;28;20508;-41
2022/06/17 04:14:57;;;;;;;9.35;6.03;;;19.10;99.90;;;;;;5038832;28;20401;-29
2022/06/17 04:17:31;;;;;;;10.60;6.32;;;19.10;99.90;;;;;;5048512;28;20091;-30
2022/06/17 04:20:19;;;;;;;13.80;7.15;;;19.10;99.90;;;;;;5038565;28;20547;-30
2022/06/17 04:22:48;;;;;;;8.27;5.32;;;19.00;99.90;;;;;;5048657;28;20531;-29
2022/06/17 04:25:25;;;;;;;9.20;5.78;;;19.00;99.90;;;;;;5038913;28;20044;-34
2022/06/17 04:27:57;;;;;;;7.03;5.72;;;19.00;99.90;;;;;;5038884;28;20049;-29
2022/06/17 04:30:27;;;;;;;8.70;5.80;;;19.00;99.90;;;;;;5045752;28;20370;-33
2022/06/17 04:32:58;;;;;;;11.30;6.28;;;19.00;99.90;;;;;;5046006;28;20455;-31
2022/06/17 04:35:24;;;;;;;11.68;5.75;;;19.00;99.90;;;;;;5048648;28;20045;-29
2022/06/17 04:37:50;;;;;;;14.02;6.22;;;19.00;99.90;;;;;;5039169;28;20103;-41
2022/06/17 04:40:36;;;;;;;6.30;5.55;;;19.00;99.90;;;;;;5038754;28;20033;-38
2022/06/17 04:43:18;;;;;;;8.60;6.07;;;19.10;99.90;;;;;;5047897;28;20120;-49
2022/06/17 04:45:54;;;;;;;5.90;5.20;;;19.10;99.90;;;;;;5036939;28;20053;-32
2022/06/17 04:48:20;;;;;;;10.75;5.68;;;19.20;99.90;;;;;;5043260;28;20051;-38
2022/06/17 04:50:46;;;;;;;10.88;6.32;;;19.20;99.90;;;;;;5054469;28;20469;-38
2022/06/17 04:53:12;;;;;;;10.18;5.50;;;19.20;99.90;;;;;;5053092;28;20067;-38
2022/06/17 04:55:42;;;;;;;9.27;6.25;;;19.30;99.90;;;;;;5050720;28;20071;-37
2022/06/17 04:58:27;;;;;;;10.05;6.95;;;19.30;99.90;;;;;;5054920;28;20508;-38
2022/06/17 05:00:55;;;;;;;13.25;7.03;;;19.40;99.90;;;;;;5035969;28;20037;-38
2022/06/17 05:03:29;;;;;;;8.30;6.15;;;19.40;99.90;;;;;;5052284;28;20473;-34
2022/06/17 05:05:55;;;;;;;8.50;6.55;;;19.50;99.90;;;;;;5036745;28;20033;-38
2022/06/17 05:08:31;;;;;;;7.30;6.03;;;19.50;99.90;;;;;;5053293;28;20080;-37
2022/06/17 05:11:20;;;;;;;7.10;5.95;;;19.60;99.90;;;;;;5048803;28;20025;-39
2022/06/17 05:14:32;;;;;;;12.27;6.82;;;19.70;99.90;;;;;;5055505;28;20504;-39
2022/06/17 05:16:58;;;;;;;12.93;6.10;;;19.60;99.90;;;;;;5035508;28;20033;-35
2022/06/17 05:19:23;;;;;;;8.73;6.60;;;19.60;99.90;;;;;;5054686;28;20500;-39
2022/06/17 05:21:49;;;;;;;9.20;6.78;;;19.60;99.90;;;;;;5048616;28;20078;-42
2022/06/17 05:24:15;;;;;;;9.52;6.60;;;19.60;99.90;;;;;;5055311;28;20033;-38
2022/06/17 05:26:43;;;;;;;14.57;6.18;;;19.60;99.90;;;;;;5047058;28;20096;-38
2022/06/17 05:29:10;;;;;;;11.98;6.95;;;19.60;99.90;;;;;;5045297;28;20120;-38
2022/06/17 05:31:36;;;;;;;11.35;6.88;;;19.60;99.90;;;;;;5038171;28;20485;-36
2022/06/17 05:34:03;;;;;;;9.00;5.95;;;19.70;99.90;;;;;;5051949;28;20021;-38
2022/06/17 05:36:29;;;;;;;10.18;6.40;;;19.70;99.90;;;;;;5034781;28;20047;-39
2022/06/17 05:38:55;;;;;;;8.70;6.47;;;19.70;99.90;;;;;;5037939;28;20041;-31
2022/06/17 05:41:24;;;;;;;10.77;6.82;;;19.80;99.90;;;;;;5034638;28;20552;-31
2022/06/17 05:43:50;;;;;;;10.05;6.40;;;19.90;99.90;;;;;;5034802;28;20107;-31
2022/06/17 05:46:16;;;;;;;15.65;7.05;;;19.90;99.90;;;;;;5034034;28;20022;-34
2022/06/17 05:48:42;;;;;;;9.30;6.30;;;19.90;99.90;;;;;;5034141;28;20036;-34
2022/06/17 05:51:10;;;;;;;16.10;7.05;;;20.00;99.90;;;;;;5034067;28;20474;-35
2022/06/17 05:53:35;;;;;;;10.13;6.78;;;20.00;99.90;;;;;;5034284;28;20381;-44
2022/06/17 05:56:01;;;;;;;11.43;6.80;;;20.00;99.90;;;;;;5032980;28;20021;-30
2022/06/17 05:58:26;;;;;;;11.52;7.32;;;20.00;99.90;;;;;;5033490;28;20100;-31
2022/06/17 06:00:52;;;;;;;13.70;7.65;;;20.10;99.90;;;;;;5036111;28;20025;-36
2022/06/17 06:03:21;;;;;;;14.90;7.03;;;20.20;99.90;;;;;;5040968;28;20480;-30
2022/06/17 06:05:46;;;;;;;15.20;8.23;;;20.20;99.90;;;;;;5038433;28;20032;-32
2022/06/17 06:08:12;;;;;;;11.85;7.78;;;20.20;99.90;;;;;;5036655;28;20037;-29
2022/06/17 06:10:38;;;;;;;9.05;6.90;;;20.20;99.90;;;;;;5043437;28;20017;-30
2022/06/17 06:13:04;;;;;;;12.65;7.97;;;20.30;99.90;;;;;;5033413;28;20060;-33
2022/06/17 06:15:41;;;;;;;12.63;7.85;;;20.30;99.90;;;;;;5032511;28;20021;-29
2022/06/17 06:18:10;;;;;;;12.93;7.07;;;20.40;99.90;;;;;;5034856;28;20033;-33
2022/06/17 06:20:35;;;;;;;12.80;7.80;;;20.40;99.90;;;;;;5044095;28;20067;-30
2022/06/17 06:23:01;;;;;;;9.35;7.30;;;20.50;99.90;;;;;;5034797;28;20438;-31
2022/06/17 06:25:27;;;;;;;11.23;8.10;;;20.50;99.90;;;;;;5033628;28;20108;-31
2022/06/17 06:27:53;;;;;;;11.23;7.50;;;20.50;99.90;;;;;;5037038;28;20124;-31
2022/06/17 06:30:30;;;;;;;8.70;7.43;;;20.60;99.90;;;;;;5037824;28;20022;-33
2022/06/17 06:33:01;;;;;;;15.63;6.30;;;20.80;99.90;;;;;;5037890;28;20516;-31
2022/06/17 06:35:29;;;;;;;13.98;7.85;;;21.10;99.90;;;;;;5037896;28;20481;-36
2022/06/17 06:37:55;;;;;;;10.02;6.20;;;21.30;99.90;;;;;;5044737;28;20485;-31
2022/06/17 06:40:21;;;;;;;11.02;7.00;;;21.40;99.90;;;;;;5041997;28;20036;-36
2022/06/17 06:42:49;;;;;;;12.93;6.80;;;21.40;99.90;;;;;;5041846;28;20075;-32
2022/06/17 06:45:16;;;;;;;;;;;21.30;99.90;;;;;;5049501;28;20032;-31
2022/06/17 06:47:43;;;;;;;12.10;6.70;;;21.40;99.90;;;;;;5033599;28;19991;-32
2022/06/17 06:50:13;;;;;;;10.73;6.85;;;22.10;99.90;;;;;;5042623;28;20037;-34
2022/06/17 06:52:39;;;;;;;10.82;7.28;;;23.00;99.20;;;;;;5046457;28;20059;-33
2022/06/17 06:55:05;;;;;;;9.73;6.28;;;23.40;98.50;;;;;;5050280;28;20052;-39
2022/06/17 06:57:31;;;;;;;15.13;6.18;;;23.60;98.20;;;;;;5044156;28;20071;-40
2022/06/17 07:00:07;;;;;;;8.65;5.50;;;23.60;97.80;;;;;;5034793;28;20029;-39
2022/06/17 07:02:33;;;;;;;17.33;6.68;;;23.90;97.70;;;;;;5050475;28;20507;-39
2022/06/17 07:04:59;;;;;;;11.20;5.90;;;24.40;96.90;;;;;;5044074;28;20124;-40
2022/06/17 07:07:24;;;;;;;10.23;5.70;;;24.70;96.30;;;;;;5047381;28;20100;-39
2022/06/17 07:09:50;;;;;;;6.28;4.50;;;24.80;96.00;;;;;;5039743;28;20025;-40
2022/06/17 07:12:16;;;;;;;6.70;4.60;;;24.90;95.70;;;;;;5042409;28;20470;-38
2022/06/17 07:14:42;;;;;;;7.82;5.28;;;25.30;95.30;;;;;;5039944;28;20033;-39
2022/06/17 07:17:08;;;;;;;7.25;4.75;;;26.10;94.60;;;;;;5033831;28;20014;-37
2022/06/17 07:19:34;;;;;;;8.73;4.40;;;26.80;93.90;;;;;;5033027;28;20095;-39
2022/06/17 07:21:59;;;;;;;6.28;4.78;;;27.40;93.10;;;;;;5033384;28;20029;-39
2022/06/17 07:27:09;;;;;;;10.43;4.50;;;28.30;92.40;;;;;;5034959;28;20176;-38
2022/06/17 07:29:35;;;;;;;5.35;4.32;;;28.60;92.10;;;;;;5037683;28;20116;-39
2022/06/17 07:32:00;;;;;;;6.28;4.07;;;28.50;91.80;;;;;;5039798;28;20030;-37
2022/06/17 07:34:26;;;;;;;4.22;3.58;;;28.40;92.00;;;;;;5038455;28;20021;-39
2022/06/17 07:39:54;;;;;;;7.55;4.35;;;28.50;92.20;;;;;;5038200;28;20033;-37
2022/06/17 07:42:26;;;;;;;6.90;3.78;;;28.70;91.70;;;;;;5043972;28;20033;-39
2022/06/17 07:44:52;;;;;;;6.65;4.18;;;28.70;91.70;;;;;;5040165;28;20121;-40
2022/06/17 07:47:20;;;;;;;6.00;4.07;;;28.40;91.90;;;;;;5038393;28;20511;-39
2022/06/17 07:49:46;;;;;;;5.38;3.40;;;28.20;91.80;;;;;;5032760;28;20033;-40
2022/06/17 07:52:12;;;;;;;4.60;3.42;;;28.00;92.10;;;;;;5035861;28;20036;-40
2022/06/17 07:54:38;;;;;;;8.77;3.90;;;28.00;92.10;;;;;;5038227;28;20096;-39
2022/06/17 07:57:04;;;;;;;4.78;3.22;;;27.80;91.70;;;;;;5033970;28;20026;-39
2022/06/17 07:59:29;;;;;;;4.70;3.55;;;27.70;92.10;;;;;;5032610;28;20486;-42
2022/06/17 08:01:55;;;;;;;5.53;3.38;;;27.80;91.40;;;;;;5032266;28;20072;-37
2022/06/17 08:04:21;;;;;;;12.20;3.75;;;27.70;91.60;;;;;;5051923;28;20029;-40
2022/06/17 08:06:50;;;;;;;8.75;3.13;;;27.80;91.40;;;;;;5052681;28;20059;-39
2022/06/17 08:09:22;;;;;;;10.20;3.47;;;27.70;91.50;;;;;;5038990;28;20389;-40
2022/06/17 08:11:48;;;;;;;4.95;3.20;;;27.90;91.40;;;;;;5036263;28;20052;-38
2022/06/17 08:14:14;;;;;;;3.92;2.92;;;28.10;90.90;;;;;;5036101;28;20485;-40
2022/06/17 08:16:40;;;;;;;3.17;2.75;;;28.10;90.90;;;;;;5038011;28;20023;-38
2022/06/17 08:19:07;;;;;;;10.30;3.05;;;28.30;90.80;;;;;;5032899;28;20482;-39
2022/06/17 08:21:34;;;;;;;6.30;2.85;;;28.40;90.90;;;;;;5036535;28;20025;-39
2022/06/17 08:24:00;;;;;;;6.38;2.72;;;28.60;90.70;;;;;;5037212;28;20025;-38
2022/06/17 08:26:26;;;;;;;3.50;2.33;;;28.80;90.70;;;;;;5036303;28;20025;-39
2022/06/17 08:28:52;;;;;;;8.10;3.33;;;29.10;90.60;;;;;;5042484;28;20382;-39
2022/06/17 08:31:18;;;;;;;3.53;2.83;;;29.30;90.10;;;;;;5038190;28;20025;-39
2022/06/17 08:33:44;;;;;;;4.78;3.10;;;29.30;90.20;;;;;;5056237;28;20025;-38
2022/06/17 08:36:22;;;;;;;7.00;2.60;;;29.50;89.70;;;;;;5040334;28;20041;-39
2022/06/17 08:39:00;;;;;;;5.10;3.45;;;29.70;89.70;;;;;;5047185;28;20528;-38
2022/06/17 08:41:46;;;;;;;4.68;3.13;;;29.80;89.50;;;;;;5039201;28;20036;-39
2022/06/17 08:44:32;;;;;;;2.95;2.58;;;30.10;88.50;;;;;;5052899;28;20489;-39
2022/06/17 08:47:18;;;;;;;7.60;3.40;;;30.50;88.10;;;;;;5018921;28;20033;-38
2022/06/17 08:49:54;;;;;;;2.88;2.22;;;30.90;87.10;;;;;;5030889;28;20572;-39
2022/06/17 08:53:12;;;;;;;5.38;2.70;;;31.00;86.60;;;;;;5054667;28;20047;-37
2022/06/17 08:56:05;;;;;;;4.15;2.75;;;31.20;85.90;;;;;;5004681;28;20061;-30
2022/06/17 08:58:47;;;;;;;6.05;2.72;;;31.30;85.70;;;;;;5045512;28;20064;-30
2022/06/17 09:01:30;;;;;;;7.00;2.22;;;30.90;86.10;;;;;;5035583;28;20447;-34
2022/06/17 09:04:14;;;;;;;5.22;2.83;;;31.00;86.80;;;;;;5041459;28;20115;-33
2022/06/17 09:07:18;;;;;;;6.00;2.50;;;31.30;84.70;;;;;;5053348;28;20043;-35
2022/06/17 09:09:46;;;;;;;3.85;3.20;;;31.30;85.20;;;;;;5054501;28;20071;-35
2022/06/17 09:12:18;;;;;;;6.07;2.58;;;31.10;85.60;;;;;;5054571;28;20485;-31
2022/06/17 09:14:53;;;;;;;4.45;2.25;;;30.90;85.20;;;;;;5055358;28;20029;-40
2022/06/17 09:17:56;;;;;;;5.65;2.80;;;30.90;86.10;;;;;;5054298;28;20029;-39
2022/06/17 09:20:28;;;;;;;5.47;3.50;;;31.00;85.60;;;;;;5055150;28;20066;-33
2022/06/17 09:22:59;;;;;;;3.28;2.70;;;30.60;85.80;;;;;;5054093;28;20537;-29
2022/06/17 09:25:36;;;;;;;8.05;2.60;;;30.50;86.10;;;;;;5055210;28;20346;-31
2022/06/17 09:28:03;;;;;;;2.33;2.03;;;30.30;86.80;;;;;;5053839;28;20497;-32
2022/06/17 09:30:34;;;;;;;2.47;2.20;;;30.30;87.10;;;;;;5051221;28;20044;-49
2022/06/17 09:33:24;;;;;;;6.32;2.60;;;30.20;86.70;;;;;;5054459;28;20021;-39
2022/06/17 09:36:06;;;;;;;3.90;2.20;;;30.10;86.60;;;;;;5054210;28;20476;-38
2022/06/17 09:38:52;;;;;;;3.75;2.45;;;30.20;87.10;;;;;;5055185;28;20033;-33
2022/06/17 09:41:32;;;;;;;3.55;2.25;;;30.40;87.30;;;;;;5052932;28;20477;-33
2022/06/17 09:44:13;;;;;;;2.58;2.38;;;30.40;85.80;;;;;;5054986;28;20028;-29
2022/06/17 09:46:44;;;;;;;3.13;2.38;;;30.30;86.20;;;;;;5053718;28;20024;-29
2022/06/17 09:49:25;;;;;;;5.72;2.40;;;30.30;85.70;;;;;;5051398;28;20071;-30
2022/06/17 09:51:54;;;;;;;4.43;2.55;;;30.40;86.30;;;;;;5051266;28;20394;-32
2022/06/17 09:54:39;;;;;;;2.80;2.05;;;30.50;86.20;;;;;;5054625;28;20470;-35
2022/06/17 09:57:35;;;;;;;5.73;2.40;;;30.70;85.90;;;;;;5053660;28;20025;-31
2022/06/17 10:00:08;;;;;;;9.07;3.13;;;31.00;85.50;;;;;;5053423;28;20033;-31
2022/06/17 10:02:50;;;;;;;4.88;2.30;;;31.30;84.50;;;;;;5044379;28;20036;-31
2022/06/17 10:05:22;;;;;;;6.32;2.42;;;31.50;84.90;;;;;;5039937;28;20024;-36
2022/06/17 10:07:55;;;;;;;3.28;2.40;;;31.80;84.60;;;;;;5052335;28;20029;-31
2022/06/17 10:10:38;;;;;;;3.63;2.47;;;32.10;84.40;;;;;;5051963;28;20025;-31
2022/06/17 10:13:28;;;;;;;5.53;2.88;;;32.70;83.10;;;;;;5052600;28;20470;-35
2022/06/17 10:19:11;;;;;;;4.00;2.00;;;33.40;80.40;;;;;;5052897;28;20179;-32
2022/06/17 10:22:01;;;;;;;6.18;2.28;;;33.40;79.90;;;;;;5054085;28;20070;-29
2022/06/17 10:24:54;;;;;;;5.28;2.58;;;33.30;79.30;;;;;;5052193;28;20397;-34
2022/06/17 10:27:46;;;;;;;2.15;1.95;;;33.00;80.00;;;;;;5053801;28;20118;-30
2022/06/17 10:30:45;;;;;;;6.97;2.35;;;32.80;80.10;;;;;;5054524;28;20592;-29
2022/06/17 10:33:13;;;;;;;4.05;2.00;;;32.40;81.70;;;;;;5048432;28;20370;-32
2022/06/17 10:35:41;;;;;;;4.03;2.65;;;32.40;82.00;;;;;;5053110;28;20522;-40
2022/06/17 10:38:13;;;;;;;2.85;2.17;;;32.40;80.80;;;;;;5053880;28;20051;-39
2022/06/17 10:40:40;;;;;;;4.80;2.13;;;32.30;81.10;;;;;;5052724;28;20135;-39
2022/06/17 10:43:15;;;;;;;6.82;2.40;;;32.20;80.10;;;;;;5052032;28;20480;-37
2022/06/17 10:45:41;;;;;;;3.40;2.30;;;32.20;79.70;;;;;;5053687;28;20017;-40
2022/06/17 10:48:09;;;;;;;3.60;2.15;;;32.00;80.10;;;;;;5053634;28;20025;-40
2022/06/17 10:50:35;;;;;;;4.05;2.10;;;31.90;80.10;;;;;;5052568;28;20025;-39
2022/06/17 10:53:24;;;;;;;3.87;2.30;;;32.00;79.90;;;;;;5049117;28;20460;-37
2022/06/17 10:55:55;;;;;;;2.40;2.15;;;31.80;78.50;;;;;;5033853;28;20470;-41
2022/06/17 10:58:22;;;;;;;3.35;1.83;;;31.70;79.20;;;;;;5032530;28;20604;-40
2022/06/17 11:01:15;;;;;;;2.55;1.70;;;31.50;81.10;;;;;;5033429;28;20021;-30
2022/06/17 11:03:45;;;;;;;3.05;2.00;;;31.60;80.90;;;;;;5037241;28;20501;-34
2022/06/17 11:06:25;;;;;;;4.30;2.10;;;31.50;80.20;;;;;;5039038;28;20095;-31
2022/06/17 11:09:00;;;;;;;2.65;2.00;;;31.40;79.50;;;;;;5033288;28;20474;-31
2022/06/17 11:14:24;;;;;;;3.20;1.85;;;31.00;79.50;;;;;;5041688;28;20032;-39
2022/06/17 11:16:51;;;;;;;3.05;1.90;;;30.80;80.20;;;;;;5053224;28;20017;-31
2022/06/17 11:19:21;;;;;;;3.50;1.70;;;30.60;80.40;;;;;;5053152;28;20539;-31
2022/06/17 11:21:52;;;;;;;6.47;1.50;;;30.50;80.10;;;;;;5053205;28;20025;-31
2022/06/17 11:24:26;;;;;;;6.45;2.30;;;30.50;79.50;;;;;;5037114;28;20029;-31
2022/06/17 11:27:21;;;;;;;5.32;2.10;;;30.50;79.60;;;;;;5033267;28;20049;-33
2022/06/17 11:29:50;;;;;;;5.53;2.40;;;30.40;80.20;;;;;;5033078;28;20025;-32
2022/06/17 11:32:30;;;;;;;3.22;1.25;;;30.50;79.90;;;;;;5041829;28;20543;-31
2022/06/17 11:34:59;;;;;;;2.60;1.60;;;30.50;80.50;;;;;;5052126;28;20027;-32
2022/06/17 11:37:35;;;;;;;4.28;1.60;;;30.60;81.50;;;;;;5052884;28;20385;-32
2022/06/17 11:40:28;;;;;;;2.95;1.65;;;30.80;81.40;;;;;;5052990;28;20112;-36
2022/06/17 11:42:59;;;;;;;1.80;1.30;;;30.80;79.90;;;;;;5049932;28;20048;-35
2022/06/17 11:45:40;;;;;;;4.95;1.40;;;30.70;80.60;;;;;;5052492;28;20029;-35
2022/06/17 11:48:13;;;;;;;2.75;1.73;;;30.70;80.70;;;;;;5052812;28;20436;-32
2022/06/17 11:50:58;;;;;;;1.85;1.42;;;30.90;79.20;;;;;;5052968;28;20115;-39
2022/06/17 11:53:24;;;;;;;1.38;1.27;;;31.00;79.30;;;;;;5048766;28;20051;-39
2022/06/17 11:55:51;;;;;;;1.88;1.40;;;31.00;78.90;;;;;;5054885;28;20096;-31
2022/06/17 11:58:18;;;;;;;2.00;1.38;;;31.10;79.50;;;;;;5056819;28;20050;-32
2022/06/17 12:00:49;;;;;;;8.13;1.40;;;31.10;79.40;;;;;;5056813;28;20029;-32
2022/06/17 12:03:43;;;;;;;1.63;1.40;;;31.10;79.60;;;;;;5055567;28;20025;-35
2022/06/17 12:06:19;;;;;;;8.30;1.73;;;31.30;78.80;;;;;;5043180;28;20038;-38
2022/06/17 12:08:50;;;;;;;4.90;1.25;;;31.40;78.70;;;;;;5036589;28;20025;-37
2022/06/17 12:11:33;;;;;;;3.35;1.60;;;31.40;80.20;;;;;;5035421;28;20056;-37
2022/06/17 12:14:05;;;;;;;1.65;1.25;;;31.30;77.90;;;;;;5053538;28;20034;-39
2022/06/17 12:16:41;;;;;;;1.88;1.42;;;31.20;78.40;;;;;;5056789;28;20040;-39
2022/06/17 12:19:20;;;;;;;9.00;2.15;;;31.10;79.30;;;;;;5056632;28;20032;-39
2022/06/17 12:21:45;;;;;;;1.52;1.30;;;31.20;79.40;;;;;;5056211;28;20044;-34
2022/06/17 12:24:28;;;;;;;5.82;1.45;;;31.30;79.20;;;;;;5055109;28;20021;-39
2022/06/17 12:27:38;;;;;;;6.43;1.40;;;31.50;79.80;;;;;;5054917;28;20049;-40
2022/06/17 12:30:24;;;;;;;2.42;2.03;;;31.60;78.20;;;;;;5034250;28;20551;-40
2022/06/17 12:33:10;;;;;;;2.13;1.30;;;31.70;79.20;;;;;;5033328;28;20026;-38
2022/06/17 12:35:42;;;;;;;1.17;1.17;;;31.70;79.00;;;;;;5035899;28;20037;-39
2022/06/17 12:38:21;;;;;;;2.30;1.27;;;31.60;79.60;;;;;;5036127;28;20512;-40
2022/06/17 12:41:10;;;;;;;3.28;1.50;;;31.70;78.90;;;;;;5034780;28;20018;-38
2022/06/17 12:43:45;;;;;;;2.28;1.48;;;31.80;79.20;;;;;;5049993;28;20033;-35
2022/06/17 12:46:35;;;;;;;2.95;1.17;;;32.00;79.10;;;;;;5055987;28;20029;-34
2022/06/17 12:55:38;;;;;;;2.00;1.30;;;31.80;78.00;;;;;;5054828;28;20055;-31
2022/06/17 12:58:36;;;;;;;1.95;1.35;;;31.70;77.70;;;;;;5053280;28;20029;-30
2022/06/17 13:01:27;;;;;;;4.63;1.40;;;31.60;78.50;;;;;;5055590;28;20017;-29
2022/06/17 13:04:13;;;;;;;5.40;1.20;;;31.50;79.10;;;;;;5036422;28;20666;-31
2022/06/17 13:06:41;;;;;;;1.35;1.25;;;31.40;80.70;;;;;;5037700;28;20462;-30
2022/06/17 13:09:18;;;;;;;1.50;1.40;;;31.50;79.80;;;;;;5035322;28;20481;-31
2022/06/17 13:12:02;;;;;;;3.70;1.30;;;31.60;78.90;;;;;;5035392;28;20083;-31
2022/06/17 13:14:33;;;;;;;3.25;1.50;;;31.70;78.70;;;;;;5035668;28;20501;-30
2022/06/17 13:17:12;;;;;;;3.65;1.60;;;31.80;79.00;;;;;;5038697;28;20411;-33
2022/06/17 13:19:54;;;;;;;2.35;1.60;;;31.80;78.10;;;;;;5055540;28;20021;-33
2022/06/17 13:22:30;;;;;;;2.53;1.40;;;31.70;78.10;;;;;;5034450;28;20029;-30
2022/06/17 13:24:59;;;;;;;;;;;31.60;77.80;;;;;;5038761;28;20025;-29
2022/06/17 13:27:54;;;;;;;2.15;1.45;;;31.60;77.50;;;;;;5045231;28;19917;-31
2022/06/17 13:30:42;;;;;;;4.80;2.55;;;31.50;78.00;;;;;;5036950;28;20045;-36
2022/06/17 13:33:29;;;;;;;2.65;1.23;;;31.60;77.70;;;;;;5035132;28;20105;-33
2022/06/17 13:36:05;;;;;;;3.78;1.40;;;31.70;80.00;;;;;;5036830;28;20026;-29
2022/06/17 13:38:43;;;;;;;2.47;1.95;;;31.70;79.20;;;;;;5034749;28;20429;-35